createdAt,value
2023-05-01T00:00:54.530Z,99.99
2023-05-01T00:01:54.474Z,99.99
2023-05-01T00:02:54.671Z,99.99
2023-05-01T00:03:54.765Z,99.99
2023-05-01T00:04:54.514Z,99.99
2023-05-01T00:05:54.335Z,99.99
2023-05-01T00:06:54.341Z,99.99
2023-05-01T00:07:54.261Z,99.99
2023-05-01T00:08:54.224Z,99.99
2023-05-01T00:09:54.394Z,99.99
2023-05-01T00:10:54.233Z,99.99
2023-05-01T00:11:54.109Z,99.99
2023-05-01T00:12:54.073Z,99.99
2023-05-01T00:13:54.035Z,99.99
2023-05-01T00:14:54.000Z,99.99
2023-05-01T00:15:54.000Z,99.99
2023-05-01T00:16:54.058Z,99.99
2023-05-01T00:17:53.923Z,99.99
2023-05-01T00:18:53.858Z,99.99
2023-05-01T00:19:53.962Z,99.99
2023-05-01T00:20:53.773Z,99.99
2023-05-01T00:21:53.823Z,99.99
2023-05-01T00:22:53.857Z,99.99
2023-05-01T00:23:53.669Z,99.99
2023-05-01T00:24:53.633Z,99.99
2023-05-01T00:25:53.650Z,99.99
2023-05-01T00:26:53.560Z,99.99
2023-05-01T00:27:53.582Z,99.99
2023-05-01T00:28:53.493Z,99.99
2023-05-01T00:29:53.562Z,99.99
2023-05-01T00:30:53.408Z,99.99
2023-05-01T00:31:53.410Z,99.99
2023-05-01T00:32:53.429Z,99.99
2023-05-01T00:33:53.347Z,99.99
2023-05-01T00:34:53.274Z,99.99
2023-05-01T00:35:53.238Z,99.99
2023-05-01T00:36:53.188Z,99.99
2023-05-01T00:37:53.161Z,99.99
2023-05-01T00:38:53.181Z,99.99
2023-05-01T00:39:53.176Z,99.99
2023-05-01T00:40:53.047Z,99.99
2023-05-01T00:41:53.010Z,99.99
2023-05-01T00:42:52.974Z,99.99
2023-05-01T00:43:52.938Z,99.99
2023-05-01T00:44:52.946Z,99.99
2023-05-01T00:45:52.918Z,99.99
2023-05-01T00:46:52.818Z,99.92
2023-05-01T00:47:52.863Z,99.92
2023-05-01T00:48:52.746Z,99.92
2023-05-01T00:49:52.779Z,99.92
2023-05-01T00:50:52.735Z,99.92
2023-05-01T00:51:52.632Z,99.92
2023-05-01T00:52:52.608Z,99.99
2023-05-01T00:53:52.571Z,99.98
2023-05-01T00:54:52.543Z,99.35
2023-05-01T00:55:52.518Z,99.15
2023-05-01T00:56:52.597Z,98.94
2023-05-01T00:57:52.425Z,99.15
2023-05-01T00:58:52.401Z,99.04
2023-05-01T00:59:52.341Z,99.15
2023-05-01T01:00:52.398Z,99.04
2023-05-01T01:01:54.926Z,98.32
2023-05-01T01:02:52.365Z,98.63
2023-05-01T01:03:52.438Z,98.73
2023-05-01T01:04:52.193Z,98.52
2023-05-01T01:05:52.172Z,98.63
2023-05-01T01:06:52.084Z,98.63
2023-05-01T01:07:52.050Z,98.63
2023-05-01T01:08:52.068Z,98.73
2023-05-01T01:09:51.968Z,99.04
2023-05-01T01:10:51.986Z,99.35
2023-05-01T01:11:51.932Z,99.46
2023-05-01T01:12:51.860Z,98.94
2023-05-01T01:13:51.832Z,99.30
2023-05-01T01:14:51.856Z,98.99
2023-05-01T01:15:51.768Z,99.30
2023-05-01T01:16:51.750Z,99.09
2023-05-01T01:17:51.741Z,99.40
2023-05-01T01:18:51.646Z,98.83
2023-05-01T01:19:51.605Z,99.46
2023-05-01T01:20:51.639Z,99.04
2023-05-01T01:21:51.577Z,98.42
2023-05-01T01:22:51.575Z,98.32
2023-05-01T01:23:51.458Z,98.52
2023-05-01T01:24:51.422Z,98.52
2023-05-01T01:25:51.389Z,98.52
2023-05-01T01:26:51.400Z,98.57
2023-05-01T01:27:51.313Z,98.83
2023-05-01T01:28:51.270Z,99.19
2023-05-01T01:29:51.239Z,99.30
2023-05-01T01:30:51.245Z,98.99
2023-05-01T01:31:51.235Z,99.15
2023-05-01T01:32:51.195Z,98.99
2023-05-01T01:33:51.112Z,99.19
2023-05-01T01:34:51.120Z,99.46
2023-05-01T01:35:51.014Z,99.04
2023-05-01T01:36:51.037Z,98.52
2023-05-01T01:37:50.936Z,98.73
2023-05-01T01:38:50.919Z,98.42
2023-05-01T01:39:50.869Z,98.52
2023-05-01T01:40:50.828Z,98.52
2023-05-01T01:41:50.862Z,97.80
2023-05-01T01:42:50.756Z,98.32
2023-05-01T01:43:50.741Z,98.21
2023-05-01T01:44:50.699Z,98.32
2023-05-01T01:45:50.712Z,97.80
2023-05-01T01:46:50.612Z,98.00
2023-05-01T01:47:50.671Z,97.80
2023-05-01T01:48:50.531Z,97.49
2023-05-01T01:49:50.526Z,97.28
2023-05-01T01:50:50.466Z,97.38
2023-05-01T01:51:50.427Z,97.69
2023-05-01T01:52:50.393Z,97.80
2023-05-01T01:53:50.420Z,98.42
2023-05-01T01:54:50.330Z,98.00
2023-05-01T01:55:50.273Z,98.42
2023-05-01T01:56:50.238Z,98.11
2023-05-01T01:57:50.203Z,97.90
2023-05-01T01:58:50.170Z,97.59
2023-05-01T01:59:50.203Z,97.55
2023-05-01T02:00:50.086Z,97.49
2023-05-01T02:01:50.119Z,97.44
2023-05-01T02:02:50.129Z,97.69
2023-05-01T02:03:50.087Z,97.44
2023-05-01T02:04:49.948Z,97.28
2023-05-01T02:05:49.977Z,97.49
2023-05-01T02:06:50.017Z,97.44
2023-05-01T02:07:49.852Z,96.72
2023-05-01T02:08:49.801Z,96.72
2023-05-01T02:09:49.769Z,96.61
2023-05-01T02:10:49.721Z,96.98
2023-05-01T02:11:49.747Z,95.84
2023-05-01T02:12:49.656Z,96.41
2023-05-01T02:13:49.620Z,96.47
2023-05-01T02:14:49.587Z,96.26
2023-05-01T02:15:49.559Z,96.36
2023-05-01T02:16:49.559Z,96.05
2023-05-01T02:17:49.550Z,96.05
2023-05-01T02:18:49.513Z,95.78
2023-05-01T02:19:49.400Z,95.89
2023-05-01T02:20:49.374Z,95.84
2023-05-01T02:21:49.322Z,95.74
2023-05-01T02:22:49.325Z,95.64
2023-05-01T02:23:49.254Z,95.68
2023-05-01T02:24:49.397Z,96.15
2023-05-01T02:25:49.178Z,95.32
2023-05-01T02:26:49.139Z,95.01
2023-05-01T02:27:49.121Z,94.91
2023-05-01T02:28:49.065Z,95.12
2023-05-01T02:29:49.108Z,94.70
2023-05-01T02:30:48.994Z,95.22
2023-05-01T02:31:48.991Z,94.70
2023-05-01T02:32:48.942Z,94.49
2023-05-01T02:33:48.895Z,94.39
2023-05-01T02:34:48.885Z,94.70
2023-05-01T02:35:48.867Z,94.60
2023-05-01T02:36:48.777Z,95.22
2023-05-01T02:37:48.742Z,94.91
2023-05-01T02:38:48.707Z,94.91
2023-05-01T02:39:48.662Z,95.16
2023-05-01T02:40:48.689Z,95.26
2023-05-01T02:41:48.596Z,95.06
2023-05-01T02:42:48.556Z,95.06
2023-05-01T02:43:48.522Z,96.41
2023-05-01T02:44:48.479Z,95.99
2023-05-01T02:45:48.539Z,95.99
2023-05-01T02:46:48.474Z,95.78
2023-05-01T02:47:48.507Z,95.53
2023-05-01T02:48:48.338Z,95.95
2023-05-01T02:49:48.300Z,96.09
2023-05-01T02:50:48.307Z,95.32
2023-05-01T02:51:48.222Z,95.43
2023-05-01T02:52:48.181Z,95.22
2023-05-01T02:53:48.155Z,96.36
2023-05-01T02:54:48.117Z,95.95
2023-05-01T02:55:48.139Z,95.26
2023-05-01T02:56:48.114Z,96.15
2023-05-01T02:57:47.995Z,95.01
2023-05-01T02:58:47.962Z,95.16
2023-05-01T02:59:47.982Z,94.91
2023-05-01T03:00:47.913Z,95.12
2023-05-01T03:01:47.939Z,95.06
2023-05-01T03:02:47.909Z,95.47
2023-05-01T03:03:47.827Z,95.16
2023-05-01T03:04:47.797Z,95.68
2023-05-01T03:05:47.824Z,95.99
2023-05-01T03:06:47.861Z,96.45
2023-05-01T03:07:47.701Z,96.55
2023-05-01T03:08:47.592Z,96.30
2023-05-01T03:09:47.589Z,95.51
2023-05-01T03:10:47.529Z,95.83
2023-05-01T03:11:47.495Z,95.93
2023-05-01T03:12:47.579Z,95.93
2023-05-01T03:13:47.416Z,96.97
2023-05-01T03:14:47.375Z,96.86
2023-05-01T03:15:47.343Z,96.66
2023-05-01T03:16:47.336Z,96.76
2023-05-01T03:17:47.280Z,96.76
2023-05-01T03:18:47.289Z,96.97
2023-05-01T03:19:47.197Z,96.45
2023-05-01T03:20:47.162Z,96.91
2023-05-01T03:21:47.115Z,96.76
2023-05-01T03:22:47.106Z,96.76
2023-05-01T03:23:47.112Z,96.70
2023-05-01T03:24:47.015Z,96.86
2023-05-01T03:25:46.989Z,96.45
2023-05-01T03:26:46.938Z,97.07
2023-05-01T03:27:46.890Z,96.55
2023-05-01T03:28:46.929Z,95.62
2023-05-01T03:29:46.899Z,96.66
2023-05-01T03:30:46.800Z,95.83
2023-05-01T03:31:46.792Z,95.62
2023-05-01T03:32:46.779Z,95.83
2023-05-01T03:33:46.675Z,96.03
2023-05-01T03:34:46.636Z,96.14
2023-05-01T03:35:46.741Z,96.45
2023-05-01T03:36:46.565Z,96.24
2023-05-01T03:37:46.544Z,96.34
2023-05-01T03:38:46.495Z,96.24
2023-05-01T03:39:46.459Z,96.60
2023-05-01T03:40:46.418Z,96.60
2023-05-01T03:41:46.446Z,96.70
2023-05-01T03:42:46.349Z,96.81
2023-05-01T03:43:46.312Z,96.60
2023-05-01T03:44:46.266Z,96.70
2023-05-01T03:45:46.340Z,96.81
2023-05-01T03:46:46.237Z,96.55
2023-05-01T03:47:46.330Z,96.97
2023-05-01T03:48:46.145Z,97.07
2023-05-01T03:49:46.088Z,96.86
2023-05-01T03:50:46.050Z,96.97
2023-05-01T03:51:46.016Z,96.97
2023-05-01T03:52:46.029Z,97.07
2023-05-01T03:53:45.946Z,96.34
2023-05-01T03:54:45.897Z,95.93
2023-05-01T03:55:45.859Z,96.34
2023-05-01T03:56:45.826Z,96.14
2023-05-01T03:57:45.800Z,95.83
2023-05-01T03:58:45.847Z,95.89
2023-05-01T03:59:45.727Z,95.74
2023-05-01T04:00:45.709Z,94.76
2023-05-01T04:01:45.714Z,93.89
2023-05-01T04:02:45.858Z,92.71
2023-05-01T04:03:45.611Z,92.40
2023-05-01T04:04:45.594Z,91.69
2023-05-01T04:05:45.508Z,90.87
2023-05-01T04:06:45.518Z,89.79
2023-05-01T04:07:45.469Z,88.57
2023-05-01T04:08:45.386Z,87.40
2023-05-01T04:09:45.356Z,86.88
2023-05-01T04:10:45.375Z,86.32
2023-05-01T04:11:45.280Z,85.23
2023-05-01T04:12:45.238Z,84.81
2023-05-01T04:13:45.199Z,85.33
2023-05-01T04:14:45.180Z,85.33
2023-05-01T04:15:45.148Z,85.54
2023-05-01T04:16:45.150Z,85.54
2023-05-01T04:17:45.090Z,85.39
2023-05-01T04:18:45.032Z,85.15
2023-05-01T04:19:45.000Z,83.77
2023-05-01T04:20:44.959Z,83.22
2023-05-01T04:21:44.984Z,82.70
2023-05-01T04:22:44.972Z,82.46
2023-05-01T04:23:44.856Z,82.29
2023-05-01T04:24:44.809Z,81.74
2023-05-01T04:25:44.779Z,80.77
2023-05-01T04:26:44.754Z,80.63
2023-05-01T04:27:44.714Z,80.53
2023-05-01T04:28:44.745Z,79.81
2023-05-01T04:29:44.657Z,79.40
2023-05-01T04:30:44.612Z,79.30
2023-05-01T04:31:44.591Z,79.23
2023-05-01T04:32:44.590Z,80.26
2023-05-01T04:33:44.499Z,80.26
2023-05-01T04:34:44.522Z,80.57
2023-05-01T04:35:44.419Z,80.88
2023-05-01T04:36:44.402Z,81.19
2023-05-01T04:37:44.357Z,81.29
2023-05-01T04:38:44.314Z,80.91
2023-05-01T04:39:44.298Z,80.67
2023-05-01T04:40:44.306Z,80.67
2023-05-01T04:41:44.220Z,80.67
2023-05-01T04:42:44.177Z,80.26
2023-05-01T04:43:44.148Z,80.16
2023-05-01T04:44:44.102Z,80.47
2023-05-01T04:45:44.084Z,81.29
2023-05-01T04:46:44.142Z,81.29
2023-05-01T04:47:44.069Z,80.98
2023-05-01T04:48:43.969Z,80.02
2023-05-01T04:49:43.942Z,79.40
2023-05-01T04:50:43.920Z,78.64
2023-05-01T04:51:43.952Z,78.61
2023-05-01T04:52:43.836Z,78.67
2023-05-01T04:53:43.805Z,78.36
2023-05-01T04:54:43.757Z,78.33
2023-05-01T04:55:43.733Z,77.51
2023-05-01T04:56:43.715Z,76.58
2023-05-01T04:57:43.714Z,76.75
2023-05-01T04:58:43.620Z,76.28
2023-05-01T04:59:43.601Z,75.45
2023-05-01T05:00:43.550Z,75.04
2023-05-01T05:01:43.589Z,74.87
2023-05-01T05:02:43.670Z,75.46
2023-05-01T05:03:43.541Z,76.83
2023-05-01T05:04:43.411Z,77.38
2023-05-01T05:05:43.376Z,78.10
2023-05-01T05:06:43.381Z,79.16
2023-05-01T05:07:43.324Z,79.06
2023-05-01T05:08:43.354Z,79.37
2023-05-01T05:09:43.251Z,79.41
2023-05-01T05:10:43.207Z,79.51
2023-05-01T05:11:43.178Z,80.44
2023-05-01T05:12:43.143Z,79.30
2023-05-01T05:13:43.117Z,79.20
2023-05-01T05:14:43.184Z,79.82
2023-05-01T05:15:43.049Z,79.41
2023-05-01T05:16:43.093Z,79.20
2023-05-01T05:17:43.005Z,79.72
2023-05-01T05:18:43.008Z,79.10
2023-05-01T05:19:42.977Z,79.51
2023-05-01T05:20:42.870Z,78.69
2023-05-01T05:21:42.837Z,78.69
2023-05-01T05:22:42.806Z,79.16
2023-05-01T05:23:42.778Z,79.30
2023-05-01T05:24:42.784Z,78.96
2023-05-01T05:25:42.699Z,78.34
2023-05-01T05:26:42.686Z,78.65
2023-05-01T05:27:42.624Z,78.69
2023-05-01T05:28:42.594Z,78.86
2023-05-01T05:29:42.561Z,78.03
2023-05-01T05:30:42.585Z,78.03
2023-05-01T05:31:42.538Z,77.72
2023-05-01T05:32:42.474Z,77.62
2023-05-01T05:33:42.425Z,77.69
2023-05-01T05:34:42.393Z,78.03
2023-05-01T05:35:42.446Z,78.20
2023-05-01T05:36:42.366Z,77.79
2023-05-01T05:37:43.412Z,77.62
2023-05-01T05:38:42.268Z,78.20
2023-05-01T05:39:42.251Z,77.38
2023-05-01T05:40:42.186Z,77.48
2023-05-01T05:41:42.151Z,76.97
2023-05-01T05:42:42.171Z,77.28
2023-05-01T05:43:42.092Z,77.69
2023-05-01T05:44:42.054Z,76.52
2023-05-01T05:45:42.112Z,76.31
2023-05-01T05:46:42.029Z,76.45
2023-05-01T05:47:42.033Z,76.45
2023-05-01T05:48:41.903Z,76.31
2023-05-01T05:49:41.923Z,76.21
2023-05-01T05:50:41.909Z,76.48
2023-05-01T05:51:41.803Z,76.48
2023-05-01T05:52:41.765Z,76.38
2023-05-01T05:53:41.736Z,76.28
2023-05-01T05:54:41.706Z,75.52
2023-05-01T05:55:41.723Z,76.35
2023-05-01T05:56:41.630Z,75.73
2023-05-01T05:57:41.605Z,76.25
2023-05-01T05:58:41.609Z,74.91
2023-05-01T05:59:41.541Z,74.60
2023-05-01T06:00:41.612Z,74.05
2023-05-01T06:01:41.453Z,74.29
2023-05-01T06:02:41.469Z,74.19
2023-05-01T06:03:41.598Z,74.77
2023-05-01T06:04:41.370Z,73.91
2023-05-01T06:05:41.413Z,74.77
2023-05-01T06:06:41.363Z,74.84
2023-05-01T06:07:41.251Z,74.12
2023-05-01T06:08:41.205Z,74.02
2023-05-01T06:09:41.182Z,73.19
2023-05-01T06:10:41.149Z,73.81
2023-05-01T06:11:41.307Z,72.89
2023-05-01T06:12:44.688Z,72.44
2023-05-01T06:13:41.047Z,73.06
2023-05-01T06:14:41.018Z,73.02
2023-05-01T06:15:41.064Z,72.82
2023-05-01T06:16:40.946Z,71.69
2023-05-01T06:17:40.968Z,71.69
2023-05-01T06:18:40.877Z,72.00
2023-05-01T06:19:40.835Z,71.15
2023-05-01T06:20:40.805Z,71.15
2023-05-01T06:21:40.773Z,71.45
2023-05-01T06:22:40.736Z,71.22
2023-05-01T06:23:40.759Z,70.60
2023-05-01T06:24:40.713Z,70.91
2023-05-01T06:25:40.631Z,70.67
2023-05-01T06:26:40.611Z,70.98
2023-05-01T06:27:40.576Z,70.36
2023-05-01T06:28:40.538Z,69.44
2023-05-01T06:29:40.573Z,69.31
2023-05-01T06:30:40.475Z,69.31
2023-05-01T06:31:40.461Z,69.31
2023-05-01T06:32:40.416Z,70.03
2023-05-01T06:33:40.361Z,69.82
2023-05-01T06:34:40.336Z,69.68
2023-05-01T06:35:40.353Z,68.55
2023-05-01T06:36:40.266Z,68.46
2023-05-01T06:37:40.225Z,67.74
2023-05-01T06:38:40.189Z,68.46
2023-05-01T06:39:40.201Z,68.32
2023-05-01T06:40:40.185Z,67.50
2023-05-01T06:41:40.210Z,67.50
2023-05-01T06:42:40.181Z,67.91
2023-05-01T06:43:40.045Z,67.19
2023-05-01T06:44:40.000Z,66.75
2023-05-01T06:45:39.967Z,66.86
2023-05-01T06:46:40.061Z,67.27
2023-05-01T06:47:39.949Z,67.37
2023-05-01T06:48:39.862Z,67.27
2023-05-01T06:49:39.835Z,66.93
2023-05-01T06:50:39.793Z,66.31
2023-05-01T06:51:39.760Z,67.54
2023-05-01T06:52:39.834Z,67.82
2023-05-01T06:53:39.701Z,66.39
2023-05-01T06:54:39.668Z,66.28
2023-05-01T06:55:39.625Z,67.58
2023-05-01T06:56:39.589Z,67.35
2023-05-01T06:57:39.621Z,66.12
2023-05-01T06:58:39.601Z,65.92
2023-05-01T06:59:39.493Z,65.41
2023-05-01T07:00:39.518Z,65.68
2023-05-01T07:01:39.487Z,65.58
2023-05-01T07:02:39.484Z,65.99
2023-05-01T07:03:39.443Z,65.34
2023-05-01T07:04:39.397Z,64.43
2023-05-01T07:05:39.295Z,63.89
2023-05-01T07:06:39.336Z,63.89
2023-05-01T07:07:47.322Z,63.65
2023-05-01T07:08:39.211Z,64.47
2023-05-01T07:09:39.214Z,62.74
2023-05-01T07:10:41.741Z,62.84
2023-05-01T07:11:39.113Z,63.65
2023-05-01T07:12:39.077Z,62.94
2023-05-01T07:13:39.045Z,62.61
2023-05-01T07:14:39.026Z,62.23
2023-05-01T07:15:38.977Z,62.94
2023-05-01T07:16:39.029Z,62.20
2023-05-01T07:17:38.937Z,62.40
2023-05-01T07:18:38.893Z,62.88
2023-05-01T07:19:38.854Z,61.66
2023-05-01T07:20:39.165Z,61.53
2023-05-01T07:21:38.799Z,61.43
2023-05-01T07:22:38.777Z,61.74
2023-05-01T07:23:38.730Z,60.89
2023-05-01T07:24:38.702Z,60.46
2023-05-01T07:25:38.697Z,60.05
2023-05-01T07:26:38.698Z,59.47
2023-05-01T07:27:38.602Z,59.16
2023-05-01T07:28:38.657Z,59.84
2023-05-01T07:29:38.543Z,59.82
2023-05-01T07:30:38.515Z,60.66
2023-05-01T07:31:38.598Z,59.54
2023-05-01T07:32:38.465Z,59.31
2023-05-01T07:33:38.412Z,59.08
2023-05-01T07:34:38.380Z,59.26
2023-05-01T07:35:38.345Z,59.03
2023-05-01T07:36:38.394Z,59.43
2023-05-01T07:37:38.286Z,58.01
2023-05-01T07:38:38.259Z,58.42
2023-05-01T07:39:38.228Z,57.78
2023-05-01T07:40:38.193Z,57.78
2023-05-01T07:41:38.169Z,58.36
2023-05-01T07:42:38.189Z,57.93
2023-05-01T07:43:38.099Z,57.93
2023-05-01T07:44:38.073Z,56.84
2023-05-01T07:45:38.070Z,56.44
2023-05-01T07:46:38.108Z,56.92
2023-05-01T07:47:38.079Z,57.02
2023-05-01T07:48:38.954Z,56.71
2023-05-01T07:49:37.927Z,56.61
2023-05-01T07:50:37.884Z,57.62
2023-05-01T07:51:37.861Z,55.77
2023-05-01T07:52:37.835Z,56.18
2023-05-01T07:53:37.845Z,56.38
2023-05-01T07:54:37.765Z,55.68
2023-05-01T07:55:37.740Z,55.57
2023-05-01T07:56:37.706Z,55.27
2023-05-01T07:57:37.685Z,55.50
2023-05-01T07:58:37.753Z,56.08
2023-05-01T07:59:37.636Z,55.55
2023-05-01T08:00:37.584Z,56.26
2023-05-01T08:01:37.563Z,56.05
2023-05-01T08:02:37.597Z,55.04
2023-05-01T08:03:37.820Z,54.03
2023-05-01T08:04:37.514Z,54.26
2023-05-01T08:05:37.433Z,54.44
2023-05-01T08:06:37.463Z,55.55
2023-05-01T08:07:37.395Z,54.84
2023-05-01T08:08:37.460Z,54.76
2023-05-01T08:09:37.549Z,54.16
2023-05-01T08:10:37.289Z,55.47
2023-05-01T08:11:37.265Z,55.68
2023-05-01T08:12:37.236Z,55.88
2023-05-01T08:13:37.277Z,56.26
2023-05-01T08:14:37.239Z,56.36
2023-05-01T08:15:37.180Z,55.35
2023-05-01T08:16:37.168Z,55.85
2023-05-01T08:17:37.146Z,55.55
2023-05-01T08:18:37.065Z,55.65
2023-05-01T08:19:37.091Z,55.35
2023-05-01T08:20:37.027Z,56.05
2023-05-01T08:21:36.966Z,55.73
2023-05-01T08:22:36.935Z,55.62
2023-05-01T08:23:36.923Z,56.33
2023-05-01T08:24:36.972Z,55.42
2023-05-01T08:25:36.849Z,55.42
2023-05-01T08:26:36.847Z,55.02
2023-05-01T08:27:36.808Z,54.38
2023-05-01T08:28:36.766Z,53.90
2023-05-01T08:29:36.736Z,53.80
2023-05-01T08:30:36.787Z,54.21
2023-05-01T08:31:36.719Z,54.51
2023-05-01T08:32:36.667Z,53.80
2023-05-01T08:33:36.620Z,53.90
2023-05-01T08:34:36.591Z,53.90
2023-05-01T08:35:36.560Z,53.90
2023-05-01T08:36:36.754Z,53.19
2023-05-01T08:37:36.504Z,52.99
2023-05-01T08:38:36.478Z,53.30
2023-05-01T08:39:36.531Z,53.90
2023-05-01T08:40:36.422Z,54.31
2023-05-01T08:41:36.380Z,54.31
2023-05-01T08:42:36.442Z,54.51
2023-05-01T08:43:36.332Z,54.51
2023-05-01T08:44:36.330Z,54.18
2023-05-01T08:45:36.304Z,54.38
2023-05-01T08:46:36.257Z,54.28
2023-05-01T08:47:36.239Z,53.88
2023-05-01T08:48:36.236Z,53.88
2023-05-01T08:49:36.138Z,54.18
2023-05-01T08:50:36.115Z,55.60
2023-05-01T08:51:36.094Z,54.58
2023-05-01T08:52:36.065Z,53.78
2023-05-01T08:53:36.023Z,54.18
2023-05-01T08:54:36.080Z,53.58
2023-05-01T08:55:35.982Z,53.55
2023-05-01T08:56:35.937Z,53.96
2023-05-01T08:57:35.919Z,52.94
2023-05-01T08:58:35.885Z,53.96
2023-05-01T08:59:35.864Z,53.65
2023-05-01T09:00:35.895Z,53.65
2023-05-01T09:01:35.822Z,53.42
2023-05-01T09:02:35.778Z,53.72
2023-05-01T09:03:35.750Z,51.81
2023-05-01T09:04:35.699Z,52.21
2023-05-01T09:05:35.680Z,51.78
2023-05-01T09:06:35.747Z,51.07
2023-05-01T09:07:35.606Z,51.30
2023-05-01T09:08:35.588Z,51.48
2023-05-01T09:09:35.552Z,51.98
2023-05-01T09:10:35.557Z,51.18
2023-05-01T09:11:35.534Z,51.07
2023-05-01T09:12:35.594Z,51.25
2023-05-01T09:13:35.433Z,51.84
2023-05-01T09:14:35.407Z,51.73
2023-05-01T09:15:35.378Z,52.64
2023-05-01T09:16:35.429Z,51.53
2023-05-01T09:17:35.399Z,49.82
2023-05-01T09:18:35.302Z,50.73
2023-05-01T09:19:35.262Z,51.03
2023-05-01T09:20:35.238Z,50.82
2023-05-01T09:21:35.341Z,50.62
2023-05-01T09:22:35.176Z,50.73
2023-05-01T09:23:35.190Z,50.62
2023-05-01T09:24:35.244Z,50.22
2023-05-01T09:25:35.181Z,50.82
2023-05-01T09:26:35.079Z,51.35
2023-05-01T09:27:35.040Z,50.62
2023-05-01T09:28:35.002Z,50.02
2023-05-01T09:29:35.028Z,50.12
2023-05-01T09:30:34.961Z,50.52
2023-05-01T09:31:35.009Z,50.15
2023-05-01T09:32:34.948Z,50.52
2023-05-01T09:33:34.864Z,50.42
2023-05-01T09:34:34.835Z,50.55
2023-05-01T09:35:34.879Z,51.15
2023-05-01T09:36:34.785Z,50.73
2023-05-01T09:37:34.751Z,50.42
2023-05-01T09:38:34.716Z,51.53
2023-05-01T09:39:34.699Z,51.53
2023-05-01T09:40:34.665Z,51.03
2023-05-01T09:41:34.697Z,50.93
2023-05-01T09:42:34.608Z,50.30
2023-05-01T09:43:34.573Z,50.82
2023-05-01T09:44:34.543Z,51.51
2023-05-01T09:45:34.528Z,51.43
2023-05-01T09:46:34.651Z,50.93
2023-05-01T09:47:34.571Z,50.12
2023-05-01T09:48:35.637Z,49.62
2023-05-01T09:49:34.676Z,50.15
2023-05-01T09:50:34.581Z,52.06
2023-05-01T09:51:34.345Z,53.38
2023-05-01T09:52:34.408Z,52.24
2023-05-01T09:53:34.280Z,52.04
2023-05-01T09:54:35.286Z,52.84
2023-05-01T09:55:34.288Z,52.84
2023-05-01T09:56:34.411Z,53.12
2023-05-01T09:57:34.170Z,53.22
2023-05-01T09:58:34.193Z,52.11
2023-05-01T09:59:34.120Z,50.80
2023-05-01T10:00:34.163Z,51.40
2023-05-01T10:01:34.102Z,51.40
2023-05-01T10:02:34.139Z,51.93
2023-05-01T10:03:34.070Z,51.93
2023-05-01T10:04:34.018Z,52.01
2023-05-01T10:05:33.944Z,50.22
2023-05-01T10:06:34.030Z,51.23
2023-05-01T10:07:33.970Z,51.23
2023-05-01T10:08:33.862Z,51.73
2023-05-01T10:09:33.842Z,51.40
2023-05-01T10:10:33.878Z,52.01
2023-05-01T10:11:33.761Z,52.62
2023-05-01T10:12:33.807Z,49.79
2023-05-01T10:13:33.757Z,51.10
2023-05-01T10:14:33.739Z,50.80
2023-05-01T10:15:33.660Z,50.88
2023-05-01T10:16:33.640Z,51.59
2023-05-01T10:17:33.688Z,50.37
2023-05-01T10:18:33.566Z,50.88
2023-05-01T10:19:33.549Z,50.88
2023-05-01T10:20:33.555Z,51.86
2023-05-01T10:21:33.473Z,51.56
2023-05-01T10:22:33.527Z,49.75
2023-05-01T10:23:33.424Z,50.13
2023-05-01T10:24:33.401Z,49.52
2023-05-01T10:25:33.358Z,50.33
2023-05-01T10:26:33.339Z,51.54
2023-05-01T10:27:33.321Z,49.73
2023-05-01T10:28:33.384Z,50.31
2023-05-01T10:29:33.254Z,49.82
2023-05-01T10:30:33.253Z,48.52
2023-05-01T10:31:33.584Z,48.11
2023-05-01T10:32:33.208Z,47.19
2023-05-01T10:33:33.140Z,47.49
2023-05-01T10:34:33.202Z,48.29
2023-05-01T10:35:33.076Z,47.39
2023-05-01T10:36:33.157Z,46.91
2023-05-01T10:37:33.030Z,48.39
2023-05-01T10:38:33.159Z,47.49
2023-05-01T10:39:32.966Z,48.09
2023-05-01T10:40:33.026Z,46.68
2023-05-01T10:41:33.019Z,47.19
2023-05-01T10:42:32.890Z,47.28
2023-05-01T10:43:32.866Z,47.39
2023-05-01T10:44:32.854Z,47.28
2023-05-01T10:45:33.938Z,47.19
2023-05-01T10:46:32.932Z,47.08
2023-05-01T10:47:32.759Z,47.00
2023-05-01T10:48:32.713Z,47.20
2023-05-01T10:49:32.681Z,47.08
2023-05-01T10:50:32.649Z,46.91
2023-05-01T10:51:32.636Z,45.19
2023-05-01T10:52:32.655Z,46.70
2023-05-01T10:53:32.571Z,46.80
2023-05-01T10:54:32.532Z,46.80
2023-05-01T10:55:32.518Z,47.20
2023-05-01T10:56:32.523Z,46.88
2023-05-01T10:57:32.475Z,47.69
2023-05-01T10:58:32.498Z,47.19
2023-05-01T10:59:32.394Z,47.08
2023-05-01T11:00:32.389Z,46.78
2023-05-01T11:01:32.362Z,47.59
2023-05-01T11:02:32.360Z,46.76
2023-05-01T11:03:32.293Z,47.66
2023-05-01T11:04:32.326Z,46.54
2023-05-01T11:05:38.511Z,45.41
2023-05-01T11:06:32.363Z,44.60
2023-05-01T11:07:32.197Z,43.80
2023-05-01T11:08:32.248Z,44.00
2023-05-01T11:09:32.126Z,44.51
2023-05-01T11:10:32.160Z,44.48
2023-05-01T11:11:32.163Z,44.89
2023-05-01T11:12:32.054Z,44.16
2023-05-01T11:13:32.001Z,44.67
2023-05-01T11:14:31.981Z,43.96
2023-05-01T11:15:31.975Z,42.96
2023-05-01T11:16:32.054Z,43.86
2023-05-01T11:17:31.939Z,43.24
2023-05-01T11:18:31.880Z,43.04
2023-05-01T11:19:31.865Z,42.91
2023-05-01T11:20:31.885Z,44.12
2023-05-01T11:21:31.801Z,43.30
2023-05-01T11:22:31.846Z,42.68
2023-05-01T11:23:31.765Z,41.97
2023-05-01T11:24:31.720Z,43.08
2023-05-01T11:25:31.715Z,42.88
2023-05-01T11:26:32.579Z,43.35
2023-05-01T11:27:31.714Z,42.63
2023-05-01T11:28:31.608Z,42.46
2023-05-01T11:29:31.611Z,42.85
2023-05-01T11:30:31.589Z,42.16
2023-05-01T11:31:31.587Z,42.74
2023-05-01T11:32:31.566Z,43.24
2023-05-01T11:33:32.019Z,42.54
2023-05-01T11:34:31.469Z,41.85
2023-05-01T11:35:31.436Z,42.46
2023-05-01T11:36:31.417Z,41.15
2023-05-01T11:37:31.379Z,42.60
2023-05-01T11:38:31.368Z,42.30
2023-05-01T11:39:31.452Z,41.41
2023-05-01T11:40:31.345Z,41.43
2023-05-01T11:41:31.329Z,41.53
2023-05-01T11:42:31.294Z,42.63
2023-05-01T11:43:31.231Z,43.64
2023-05-01T11:44:31.210Z,43.84
2023-05-01T11:45:31.291Z,43.72
2023-05-01T11:46:31.327Z,43.12
2023-05-01T11:47:31.860Z,44.60
2023-05-01T11:48:31.425Z,44.40
2023-05-01T11:49:31.099Z,44.20
2023-05-01T11:50:31.041Z,42.88
2023-05-01T11:51:31.028Z,42.97
2023-05-01T11:52:31.017Z,43.19
2023-05-01T11:53:30.961Z,42.88
2023-05-01T11:54:31.049Z,42.68
2023-05-01T11:55:30.916Z,42.38
2023-05-01T11:56:30.910Z,43.48
2023-05-01T11:57:30.862Z,42.88
2023-05-01T11:58:30.832Z,43.68
2023-05-01T11:59:30.872Z,43.05
2023-05-01T12:00:31.330Z,44.35
2023-05-01T12:01:30.785Z,43.35
2023-05-01T12:02:31.414Z,42.97
2023-05-01T12:03:30.796Z,42.77
2023-05-01T12:04:32.368Z,43.08
2023-05-01T12:05:30.787Z,44.28
2023-05-01T12:06:30.666Z,43.77
2023-05-01T12:07:30.586Z,42.96
2023-05-01T12:08:30.587Z,42.85
2023-05-01T12:09:30.586Z,43.66
2023-05-01T12:10:30.601Z,43.16
2023-05-01T12:11:30.496Z,41.88
2023-05-01T12:12:30.471Z,42.07
2023-05-01T12:13:30.460Z,42.88
2023-05-01T12:14:30.405Z,42.85
2023-05-01T12:15:30.400Z,42.85
2023-05-01T12:16:30.476Z,43.58
2023-05-01T12:17:30.428Z,42.49
2023-05-01T12:18:30.349Z,41.49
2023-05-01T12:19:30.283Z,41.09
2023-05-01T12:20:30.251Z,41.47
2023-05-01T12:21:30.290Z,42.66
2023-05-01T12:22:30.228Z,42.85
2023-05-01T12:23:30.194Z,43.13
2023-05-01T12:24:30.157Z,42.43
2023-05-01T12:25:30.171Z,41.93
2023-05-01T12:26:30.171Z,42.24
2023-05-01T12:27:30.073Z,42.93
2023-05-01T12:28:30.049Z,41.03
2023-05-01T12:29:30.050Z,41.43
2023-05-01T12:30:30.036Z,42.43
2023-05-01T12:31:30.087Z,41.61
2023-05-01T12:32:30.136Z,41.02
2023-05-01T12:33:29.931Z,40.09
2023-05-01T12:34:29.948Z,40.80
2023-05-01T12:35:29.877Z,40.80
2023-05-01T12:36:29.851Z,41.08
2023-05-01T12:37:29.832Z,41.38
2023-05-01T12:38:29.849Z,39.87
2023-05-01T12:39:29.788Z,39.37
2023-05-01T12:40:29.737Z,40.67
2023-05-01T12:41:29.719Z,39.87
2023-05-01T12:42:29.716Z,39.78
2023-05-01T12:43:29.655Z,39.89
2023-05-01T12:44:29.707Z,39.72
2023-05-01T12:45:29.608Z,40.81
2023-05-01T12:46:29.734Z,41.19
2023-05-01T12:47:29.708Z,41.49
2023-05-01T12:48:29.547Z,42.41
2023-05-01T12:49:29.532Z,42.69
2023-05-01T12:50:29.545Z,41.19
2023-05-01T12:51:29.461Z,41.39
2023-05-01T12:52:29.442Z,41.19